createdAt,value
2023-03-12T00:01:23.909Z,81.35
2023-03-12T00:03:52.140Z,81.42
2023-03-12T00:06:20.736Z,81.17
2023-03-12T00:08:49.252Z,81.66
2023-03-12T00:11:22.385Z,81.42
2023-03-12T00:13:55.037Z,81.80
2023-03-12T00:16:22.750Z,81.79
2023-03-12T00:18:52.639Z,81.60
2023-03-12T00:21:20.914Z,81.43
2023-03-12T00:23:50.009Z,81.44
2023-03-12T00:26:17.848Z,81.69
2023-03-12T00:28:45.669Z,81.69
2023-03-12T00:31:17.615Z,81.54
2023-03-12T00:33:45.163Z,81.63
2023-03-12T00:36:16.261Z,81.72
2023-03-12T00:38:44.665Z,81.82
2023-03-12T00:41:12.433Z,81.79
2023-03-12T00:43:39.684Z,81.77
2023-03-12T00:46:06.850Z,81.62
2023-03-12T00:48:34.381Z,81.51
2023-03-12T00:51:01.578Z,81.54
2023-03-12T00:53:28.969Z,81.33
2023-03-12T00:55:56.287Z,81.53
2023-03-12T00:58:23.370Z,81.39
2023-03-12T01:00:50.963Z,81.65
2023-03-12T01:03:18.293Z,81.81
2023-03-12T01:05:45.881Z,81.85
2023-03-12T01:08:13.066Z,81.82
2023-03-12T01:10:43.648Z,81.05
2023-03-12T01:13:10.928Z,81.51
2023-03-12T01:15:38.602Z,81.73
2023-03-12T01:18:05.761Z,81.26
2023-03-12T01:20:33.023Z,81.31
2023-03-12T01:23:00.132Z,81.47
2023-03-12T01:25:27.478Z,81.61
2023-03-12T01:27:54.631Z,81.37
2023-03-12T01:30:21.688Z,81.00
2023-03-12T01:32:48.870Z,81.23
2023-03-12T01:35:17.210Z,81.55
2023-03-12T01:37:45.786Z,81.23
2023-03-12T01:40:26.292Z,81.30
2023-03-12T01:42:55.188Z,81.18
2023-03-12T01:46:04.255Z,81.29
2023-03-12T01:48:38.769Z,81.26
2023-03-12T01:51:08.615Z,81.18
2023-03-12T01:53:36.142Z,81.56
2023-03-12T01:56:03.695Z,81.11
2023-03-12T01:58:34.540Z,81.06
2023-03-12T02:04:00.216Z,81.48
2023-03-12T02:06:53.558Z,81.33
2023-03-12T02:09:22.041Z,81.14
2023-03-12T02:11:49.694Z,81.09
2023-03-12T02:14:17.119Z,81.02
2023-03-12T02:16:44.945Z,81.26
2023-03-12T02:19:34.978Z,81.67
2023-03-12T02:22:04.367Z,81.16
2023-03-12T02:24:41.678Z,81.43
2023-03-12T02:27:10.420Z,81.05
2023-03-12T02:29:39.793Z,81.14
2023-03-12T02:32:09.053Z,81.05
2023-03-12T02:34:36.512Z,81.51
2023-03-12T02:37:05.780Z,81.38
2023-03-12T02:39:32.711Z,81.66
2023-03-12T02:42:01.097Z,81.43
2023-03-12T02:44:31.859Z,81.05
2023-03-12T02:47:01.235Z,81.44
2023-03-12T02:49:31.628Z,81.81
2023-03-12T02:51:58.844Z,81.29
2023-03-12T02:54:27.033Z,81.64
2023-03-12T02:56:55.347Z,81.34
2023-03-12T02:59:26.985Z,81.68
2023-03-12T03:02:00.190Z,81.93
2023-03-12T03:04:29.311Z,81.38
2023-03-12T03:06:56.572Z,81.56
2023-03-12T03:09:25.038Z,81.54
2023-03-12T03:11:52.312Z,81.67
2023-03-12T03:14:19.670Z,81.81
2023-03-12T03:16:46.687Z,81.47
2023-03-12T03:19:13.737Z,81.43
2023-03-12T03:21:40.964Z,81.20
2023-03-12T03:24:08.622Z,81.65
2023-03-12T03:26:36.098Z,81.57
2023-03-12T03:29:03.655Z,81.37
2023-03-12T03:31:31.659Z,81.42
2023-03-12T03:33:58.708Z,81.20
2023-03-12T03:36:25.924Z,81.37
2023-03-12T03:38:53.331Z,80.88
2023-03-12T03:41:21.331Z,81.04
2023-03-12T03:43:48.473Z,81.07
2023-03-12T03:46:16.590Z,81.44
2023-03-12T03:48:43.838Z,81.14
2023-03-12T03:51:11.803Z,81.17
2023-03-12T03:53:39.232Z,81.18
2023-03-12T03:56:09.575Z,80.95
2023-03-12T03:58:37.726Z,80.98
2023-03-12T04:01:07.663Z,80.99
2023-03-12T04:03:35.670Z,81.36
2023-03-12T04:06:04.963Z,81.40
2023-03-12T04:08:35.758Z,81.29
2023-03-12T04:11:12.223Z,81.05
2023-03-12T04:13:39.859Z,81.31
2023-03-12T04:16:08.500Z,81.28
2023-03-12T04:18:39.376Z,81.59
2023-03-12T04:21:08.614Z,80.96
2023-03-12T04:23:36.893Z,80.86
2023-03-12T04:26:05.110Z,81.16
2023-03-12T04:28:34.787Z,81.14
2023-03-12T04:31:05.099Z,81.09
2023-03-12T04:33:36.123Z,81.35
2023-03-12T04:36:03.225Z,81.50
2023-03-12T04:38:30.624Z,81.28
2023-03-12T04:41:08.586Z,81.05
2023-03-12T04:43:36.328Z,81.23
2023-03-12T04:46:03.796Z,81.09
2023-03-12T04:48:31.193Z,81.07
2023-03-12T04:50:58.489Z,80.91
2023-03-12T04:53:26.364Z,81.07
2023-03-12T04:55:53.786Z,81.19
2023-03-12T04:58:22.416Z,81.48
2023-03-12T05:00:50.367Z,81.15
2023-03-12T05:03:18.358Z,81.44
2023-03-12T05:05:45.507Z,81.54
2023-03-12T05:08:13.300Z,81.41
2023-03-12T05:10:40.901Z,81.08
2023-03-12T05:13:16.014Z,81.17
2023-03-12T05:15:44.052Z,81.12
2023-03-12T05:18:12.782Z,81.22
2023-03-12T05:20:40.292Z,80.68
2023-03-12T05:23:08.259Z,81.00
2023-03-12T05:25:40.827Z,80.94
2023-03-12T05:28:09.234Z,81.23
2023-03-12T05:30:36.692Z,80.70
2023-03-12T05:33:03.654Z,80.80
2023-03-12T05:35:32.069Z,80.72
2023-03-12T05:37:59.243Z,80.70
2023-03-12T05:40:26.101Z,80.31
2023-03-12T05:42:53.852Z,80.60
2023-03-12T05:45:21.123Z,80.53
2023-03-12T05:47:48.298Z,80.22
2023-03-12T05:50:17.336Z,80.26
2023-03-12T05:52:44.332Z,80.13
2023-03-12T05:55:11.701Z,80.05
2023-03-12T05:57:38.805Z,80.28
2023-03-12T06:00:07.468Z,79.98
2023-03-12T06:02:34.748Z,79.44
2023-03-12T06:05:02.601Z,79.69
2023-03-12T06:07:30.018Z,79.55
2023-03-12T06:09:57.643Z,79.65
2023-03-12T06:12:25.402Z,79.25
2023-03-12T06:14:52.436Z,78.95
2023-03-12T06:17:20.022Z,79.66
2023-03-12T06:19:50.976Z,79.48
2023-03-12T06:22:18.117Z,79.18
2023-03-12T06:24:47.688Z,78.66
2023-03-12T06:27:16.785Z,77.97
2023-03-12T06:29:47.433Z,78.87
2023-03-12T06:32:15.397Z,79.01
2023-03-12T06:34:43.425Z,78.02
2023-03-12T06:37:11.105Z,77.87
2023-03-12T06:39:38.700Z,77.92
2023-03-12T06:42:06.254Z,78.03
2023-03-12T06:44:33.510Z,77.03
2023-03-12T06:47:00.463Z,76.84
2023-03-12T06:49:33.107Z,77.34
2023-03-12T06:52:00.093Z,77.63
2023-03-12T06:54:27.107Z,76.75
2023-03-12T06:56:54.517Z,77.46
2023-03-12T06:59:22.235Z,76.90
2023-03-12T07:01:50.035Z,76.75
2023-03-12T07:04:18.131Z,76.28
2023-03-12T07:06:45.086Z,76.51
2023-03-12T07:09:12.095Z,76.02
2023-03-12T07:11:39.347Z,76.10
2023-03-12T07:14:06.767Z,75.26
2023-03-12T07:16:33.981Z,75.53
2023-03-12T07:19:02.533Z,75.71
2023-03-12T07:21:30.459Z,75.28
2023-03-12T07:23:58.190Z,75.36
2023-03-12T07:26:26.314Z,74.56
2023-03-12T07:28:53.326Z,74.32
2023-03-12T07:31:20.295Z,74.82
2023-03-12T07:33:47.681Z,74.64
2023-03-12T07:36:15.088Z,74.09
2023-03-12T07:38:42.361Z,73.34
2023-03-12T07:41:09.433Z,74.67
2023-03-12T07:43:36.509Z,73.57
2023-03-12T07:46:03.615Z,73.77
2023-03-12T07:48:31.695Z,74.34
2023-03-12T07:50:58.723Z,74.07
2023-03-12T07:53:25.880Z,72.73
2023-03-12T07:55:53.815Z,72.49
2023-03-12T07:58:21.026Z,71.18
2023-03-12T08:00:48.230Z,71.79
2023-03-12T08:03:15.969Z,71.96
2023-03-12T08:05:43.254Z,71.00
2023-03-12T08:08:10.711Z,71.46
2023-03-12T08:10:38.619Z,70.77
2023-03-12T08:13:05.931Z,70.92
2023-03-12T08:15:33.709Z,71.68
2023-03-12T08:18:01.791Z,71.31
2023-03-12T08:20:29.880Z,71.74
2023-03-12T08:22:57.098Z,71.00
2023-03-12T08:25:25.032Z,70.66
2023-03-12T08:27:53.336Z,71.15
2023-03-12T08:30:21.044Z,69.39
2023-03-12T08:32:48.198Z,69.81
2023-03-12T08:35:15.339Z,70.12
2023-03-12T08:37:43.570Z,69.48
2023-03-12T08:40:13.726Z,69.48
2023-03-12T08:42:45.704Z,67.95
2023-03-12T08:45:13.503Z,69.27
2023-03-12T08:47:42.051Z,70.64
2023-03-12T08:50:11.654Z,69.88
2023-03-12T08:52:39.341Z,68.50
2023-03-12T08:55:07.072Z,69.71
2023-03-12T08:57:34.091Z,68.63
2023-03-12T09:00:01.469Z,66.88
2023-03-12T09:02:29.133Z,66.46
2023-03-12T09:04:56.162Z,62.67
2023-03-12T09:07:23.118Z,64.29
2023-03-12T09:09:50.164Z,65.66
2023-03-12T09:12:17.343Z,65.60
2023-03-12T09:17:32.851Z,63.17
2023-03-12T09:20:00.906Z,62.63
2023-03-12T09:22:30.596Z,63.29
2023-03-12T09:24:57.869Z,62.69
2023-03-12T09:27:25.326Z,63.29
2023-03-12T09:30:00.237Z,62.64
2023-03-12T09:32:29.504Z,62.58
2023-03-12T09:34:57.105Z,62.51
2023-03-12T09:37:24.589Z,62.89
2023-03-12T09:39:53.842Z,61.66
2023-03-12T09:42:33.611Z,62.05
2023-03-12T09:45:04.910Z,61.78
2023-03-12T09:47:48.217Z,60.93
2023-03-12T09:50:28.025Z,60.99
2023-03-12T09:53:13.507Z,57.87
2023-03-12T09:55:43.836Z,60.30
2023-03-12T09:58:16.601Z,60.46
2023-03-12T10:00:44.875Z,62.07
2023-03-12T10:03:43.227Z,60.54
2023-03-12T10:06:15.916Z,59.89
2023-03-12T10:09:11.451Z,59.99
2023-03-12T10:12:14.300Z,58.77
2023-03-12T10:15:23.669Z,60.02
2023-03-12T10:18:17.242Z,58.68
2023-03-12T10:20:58.355Z,58.77
2023-03-12T10:24:03.462Z,59.75
2023-03-12T10:26:40.812Z,59.85
2023-03-12T10:29:33.200Z,59.47
2023-03-12T10:32:16.956Z,58.69
2023-03-12T10:34:56.833Z,58.87
2023-03-12T10:37:42.216Z,60.75
2023-03-12T10:40:18.719Z,59.36
2023-03-12T10:42:47.852Z,59.78
2023-03-12T10:45:24.662Z,60.72
2023-03-12T10:47:57.836Z,59.52
2023-03-12T10:50:30.981Z,59.22
2023-03-12T10:53:24.551Z,59.82
2023-03-12T10:56:14.252Z,59.55
2023-03-12T10:58:45.083Z,59.15
2023-03-12T11:01:25.626Z,60.46
2023-03-12T11:03:54.796Z,60.60
2023-03-12T11:06:26.670Z,60.95
2023-03-12T11:09:17.132Z,60.49
2023-03-12T11:11:48.057Z,60.54
2023-03-12T11:14:22.298Z,59.43
2023-03-12T11:16:51.350Z,60.37
2023-03-12T11:19:35.453Z,60.46
2023-03-12T11:22:07.503Z,60.09
2023-03-12T11:24:35.545Z,60.69
2023-03-12T11:27:31.845Z,60.68
2023-03-12T11:30:01.171Z,59.00
2023-03-12T11:32:29.735Z,57.75
2023-03-12T11:34:57.097Z,58.40
2023-03-12T11:37:58.193Z,58.02
2023-03-12T11:40:28.031Z,58.85
2023-03-12T11:43:13.099Z,59.47
2023-03-12T11:46:06.717Z,57.10
2023-03-12T11:49:06.326Z,58.62
2023-03-12T11:51:52.372Z,58.63
2023-03-12T11:54:49.522Z,59.59
2023-03-12T11:57:29.474Z,59.22
2023-03-12T12:00:14.630Z,58.72
2023-03-12T12:03:15.598Z,58.75
2023-03-12T12:06:01.386Z,56.89
2023-03-12T12:08:43.777Z,58.80
2023-03-12T12:11:26.187Z,58.62
2023-03-12T12:14:14.246Z,58.39
2023-03-12T12:17:04.142Z,58.22
2023-03-12T12:19:52.883Z,59.22
2023-03-12T12:22:30.488Z,55.32
2023-03-12T12:25:26.358Z,55.62
2023-03-12T12:28:22.288Z,55.89
2023-03-12T12:31:09.618Z,57.20
2023-03-12T12:34:23.872Z,56.49
2023-03-12T12:37:17.123Z,56.75
2023-03-12T12:40:27.358Z,56.38
2023-03-12T12:43:07.256Z,56.83
2023-03-12T12:45:40.406Z,56.82
2023-03-12T12:48:15.667Z,56.57
2023-03-12T12:50:45.128Z,56.94
2023-03-12T12:53:22.768Z,57.13
2023-03-12T12:56:00.428Z,56.35
2023-03-12T12:58:50.403Z,57.03
2023-03-12T13:01:18.956Z,56.28
2023-03-12T13:03:48.205Z,57.34
2023-03-12T13:06:15.777Z,57.52
2023-03-12T13:08:43.505Z,57.25
2023-03-12T13:11:18.670Z,55.38
2023-03-12T13:13:49.721Z,56.41
2023-03-12T13:16:35.031Z,56.50
2023-03-12T13:19:26.643Z,56.49
2023-03-12T13:22:25.648Z,56.01
2023-03-12T13:24:59.571Z,56.57
2023-03-12T13:27:31.314Z,55.70
2023-03-12T13:29:59.683Z,56.02
2023-03-12T13:32:36.406Z,56.56
2023-03-12T13:35:21.838Z,56.05
2023-03-12T13:37:52.230Z,57.68
2023-03-12T13:40:51.585Z,56.04
2023-03-12T13:43:36.352Z,55.35
2023-03-12T13:46:43.556Z,55.54
2023-03-12T13:49:14.439Z,55.33
2023-03-12T13:52:18.201Z,55.16
2023-03-12T13:54:49.926Z,55.55
2023-03-12T13:57:46.602Z,54.44
2023-03-12T14:00:27.081Z,55.06
2023-03-12T14:03:13.840Z,55.14
2023-03-12T14:05:58.139Z,55.24
2023-03-12T14:08:56.236Z,55.94
2023-03-12T14:11:36.199Z,55.85
2023-03-12T14:14:45.759Z,55.78
2023-03-12T14:17:25.332Z,55.86
2023-03-12T14:19:59.947Z,56.42
2023-03-12T14:22:33.233Z,56.15
2023-03-12T14:25:14.005Z,56.33
2023-03-12T14:27:42.284Z,55.73
2023-03-12T14:30:13.130Z,56.21
2023-03-12T14:32:43.010Z,55.17
2023-03-12T14:35:30.816Z,55.86
2023-03-12T14:38:07.146Z,55.26
2023-03-12T14:40:34.316Z,55.51
2023-03-12T14:43:19.353Z,55.79
2023-03-12T14:45:46.855Z,55.36
2023-03-12T14:48:14.284Z,55.36
2023-03-12T14:50:42.081Z,55.78
2023-03-12T14:53:19.863Z,54.83
2023-03-12T14:55:46.982Z,54.99
2023-03-12T14:58:20.837Z,55.75
2023-03-12T15:01:00.811Z,55.77
2023-03-12T15:03:30.289Z,55.97
2023-03-12T15:05:59.277Z,55.07
2023-03-12T15:08:36.968Z,55.53
2023-03-12T15:11:04.488Z,55.94
2023-03-12T15:13:33.128Z,56.37
2023-03-12T15:16:00.600Z,56.63
2023-03-12T15:18:33.667Z,56.63
2023-03-12T15:21:03.636Z,56.70
2023-03-12T15:23:37.436Z,55.77
2023-03-12T15:26:29.852Z,55.73
2023-03-12T15:28:58.711Z,56.29
2023-03-12T15:31:26.511Z,56.08
2023-03-12T15:34:04.760Z,56.05
2023-03-12T15:36:35.442Z,56.23
2023-03-12T15:39:13.387Z,56.24
2023-03-12T15:41:49.941Z,56.51
2023-03-12T15:44:30.218Z,56.81
2023-03-12T15:47:08.562Z,57.23
2023-03-12T15:49:39.783Z,57.04
2023-03-12T15:52:22.546Z,57.13
2023-03-12T15:55:10.509Z,57.14
2023-03-12T15:57:57.122Z,57.31
2023-03-12T16:00:28.710Z,57.33
2023-03-12T16:03:00.277Z,57.45
2023-03-12T16:05:34.838Z,57.55
2023-03-12T16:08:34.051Z,57.31
2023-03-12T16:11:01.719Z,57.20
2023-03-12T16:13:32.641Z,57.50
2023-03-12T16:16:02.211Z,58.08
2023-03-12T16:18:30.531Z,58.09
2023-03-12T16:20:57.523Z,58.57
2023-03-12T16:23:25.495Z,58.93
2023-03-12T16:25:56.905Z,58.69
2023-03-12T16:28:25.381Z,58.90
2023-03-12T16:30:53.686Z,59.20
2023-03-12T16:33:24.372Z,59.15
2023-03-12T16:35:52.517Z,59.80
2023-03-12T16:38:20.422Z,60.07
2023-03-12T16:40:50.310Z,59.75
2023-03-12T16:43:21.982Z,60.67
2023-03-12T16:45:51.058Z,60.86
2023-03-12T16:48:21.815Z,60.79
2023-03-12T16:50:57.987Z,61.55
2023-03-12T16:53:26.125Z,61.38
2023-03-12T16:56:01.605Z,61.44
2023-03-12T16:58:31.228Z,61.96
2023-03-12T17:00:59.213Z,62.07
2023-03-12T17:03:38.137Z,62.41
2023-03-12T17:06:07.417Z,62.19
2023-03-12T17:08:36.372Z,62.37
2023-03-12T17:11:04.825Z,62.42
2023-03-12T17:13:31.851Z,62.07
2023-03-12T17:15:59.993Z,62.00
2023-03-12T17:18:28.443Z,62.24
2023-03-12T17:20:56.569Z,62.10
2023-03-12T17:23:25.110Z,61.31
2023-03-12T17:25:52.508Z,62.26
2023-03-12T17:28:19.657Z,62.24
2023-03-12T17:30:48.019Z,61.93
2023-03-12T17:33:18.456Z,61.59
2023-03-12T17:35:46.333Z,61.91
2023-03-12T17:38:15.197Z,62.21
2023-03-12T17:40:44.506Z,62.09
2023-03-12T17:43:13.035Z,62.47
2023-03-12T17:45:40.204Z,62.47
2023-03-12T17:48:07.512Z,62.20
2023-03-12T17:50:36.094Z,62.42
2023-03-12T17:53:04.511Z,62.80
2023-03-12T17:55:32.367Z,63.11
2023-03-12T17:57:59.562Z,63.59
2023-03-12T18:00:28.278Z,63.69
2023-03-12T18:02:56.073Z,64.05
2023-03-12T18:05:23.416Z,64.90
2023-03-12T18:07:51.680Z,65.19
2023-03-12T18:10:20.236Z,65.13
2023-03-12T18:12:58.848Z,66.22
2023-03-12T18:15:26.270Z,66.03
2023-03-12T18:17:56.911Z,66.33
2023-03-12T18:20:37.536Z,66.22
2023-03-12T18:23:05.660Z,66.39
2023-03-12T18:25:32.677Z,67.22
2023-03-12T18:28:00.010Z,66.66
2023-03-12T18:30:28.665Z,66.75
2023-03-12T18:32:55.858Z,66.39
2023-03-12T18:35:23.077Z,66.79
2023-03-12T18:37:52.734Z,67.30
2023-03-12T18:40:20.054Z,67.26
2023-03-12T18:42:47.226Z,67.26
2023-03-12T18:45:14.694Z,66.73
2023-03-12T18:47:45.046Z,67.05
2023-03-12T18:50:12.949Z,67.41
2023-03-12T18:52:40.503Z,67.84
2023-03-12T18:55:07.844Z,67.87
2023-03-12T18:57:34.865Z,67.71
2023-03-12T19:00:01.942Z,67.35
2023-03-12T19:02:29.080Z,67.40
2023-03-12T19:04:57.129Z,67.22
2023-03-12T19:07:24.712Z,67.66
2023-03-12T19:09:51.748Z,67.65
2023-03-12T19:12:19.624Z,67.94
2023-03-12T19:14:47.881Z,68.45
2023-03-12T19:17:14.909Z,68.70
2023-03-12T19:19:42.148Z,68.81
2023-03-12T19:22:09.659Z,68.92
2023-03-12T19:24:38.028Z,68.42
2023-03-12T19:27:05.664Z,68.24
2023-03-12T19:29:33.305Z,68.32
2023-03-12T19:32:00.338Z,68.70
2023-03-12T19:34:27.404Z,69.18
2023-03-12T19:36:55.046Z,68.84
2023-03-12T19:39:22.263Z,69.06
2023-03-12T19:41:51.321Z,68.77
2023-03-12T19:44:19.013Z,69.21
2023-03-12T19:46:46.001Z,69.05
2023-03-12T19:49:13.946Z,70.01
2023-03-12T19:51:41.845Z,70.05
2023-03-12T19:54:09.525Z,70.37
2023-03-12T19:56:36.784Z,70.67
2023-03-12T19:59:04.557Z,70.52
2023-03-12T20:01:31.484Z,70.72
2023-03-12T20:03:58.840Z,70.85
2023-03-12T20:06:26.672Z,70.57
2023-03-12T20:08:53.853Z,70.69
2023-03-12T20:11:20.999Z,70.73
2023-03-12T20:13:48.539Z,70.74
2023-03-12T20:16:17.260Z,70.69
2023-03-12T20:18:45.808Z,70.28
2023-03-12T20:21:13.541Z,70.82
2023-03-12T20:23:40.838Z,71.09
2023-03-12T20:26:08.699Z,70.73
2023-03-12T20:28:36.070Z,70.95
2023-03-12T20:31:15.110Z,71.04
2023-03-12T20:33:42.805Z,71.01
2023-03-12T20:36:13.737Z,70.77
2023-03-12T20:38:41.433Z,70.91
2023-03-12T20:41:15.877Z,71.56
2023-03-12T20:43:43.972Z,71.13
2023-03-12T20:46:12.298Z,71.27
2023-03-12T20:48:39.762Z,71.49
2023-03-12T20:51:06.991Z,71.70
2023-03-12T20:53:34.063Z,71.41
2023-03-12T20:56:01.732Z,71.51
2023-03-12T20:58:28.827Z,71.28
2023-03-12T21:00:56.549Z,72.16
2023-03-12T21:03:24.842Z,72.09
2023-03-12T21:05:57.372Z,71.50
2023-03-12T21:08:26.376Z,71.53
2023-03-12T21:10:53.528Z,71.88
2023-03-12T21:13:23.904Z,71.87
2023-03-12T21:15:51.360Z,72.19
2023-03-12T21:18:19.258Z,72.38
2023-03-12T21:20:46.427Z,72.13
2023-03-12T21:23:13.853Z,72.53
2023-03-12T21:25:42.232Z,72.10
2023-03-12T21:28:12.324Z,72.45
2023-03-12T21:30:39.936Z,72.47
2023-03-12T21:33:07.861Z,72.62
2023-03-12T21:35:35.332Z,72.60
2023-03-12T21:38:03.146Z,72.59
2023-03-12T21:40:30.263Z,72.30
2023-03-12T21:42:58.360Z,72.78
2023-03-12T21:45:27.833Z,72.57
2023-03-12T21:47:54.989Z,72.37
2023-03-12T21:50:22.578Z,72.21
2023-03-12T21:52:51.122Z,72.64
2023-03-12T21:55:19.454Z,72.54
2023-03-12T21:57:46.673Z,72.55
2023-03-12T22:00:17.312Z,72.50
2023-03-12T22:02:46.332Z,72.27
2023-03-12T22:05:14.528Z,72.48
2023-03-12T22:07:42.308Z,72.98
2023-03-12T22:10:12.249Z,72.96
2023-03-12T22:12:40.692Z,72.88
2023-03-12T22:15:10.042Z,72.73
2023-03-12T22:17:37.429Z,72.46
2023-03-12T22:20:06.340Z,72.83
2023-03-12T22:22:36.548Z,73.06
2023-03-12T22:25:03.893Z,73.02
2023-03-12T22:27:31.330Z,72.83
2023-03-12T22:30:02.519Z,72.97
2023-03-12T22:32:29.646Z,72.67
2023-03-12T22:35:28.582Z,72.33
2023-03-12T22:39:00.286Z,72.86
2023-03-12T22:47:03.220Z,71.62
2023-03-12T22:50:30.749Z,71.83
2023-03-12T22:53:58.049Z,71.87
2023-03-12T22:57:44.675Z,71.79
2023-03-12T23:01:32.513Z,72.21
2023-03-12T23:05:18.551Z,71.42
2023-03-12T23:09:05.532Z,71.59
2023-03-12T23:12:51.897Z,71.74
2023-03-12T23:16:31.485Z,71.84
2023-03-12T23:20:07.065Z,72.24
2023-03-12T23:23:56.800Z,71.61
2023-03-12T23:27:23.472Z,71.91
2023-03-12T23:31:12.830Z,71.73
2023-03-12T23:35:00.474Z,71.95
2023-03-12T23:38:50.775Z,71.86
2023-03-12T23:42:37.070Z,72.57
2023-03-12T23:46:23.890Z,72.29
2023-03-12T23:50:10.629Z,72.26
2023-03-12T23:53:57.691Z,71.86
2023-03-12T23:57:44.313Z,71.76
